createdAt,value
2019-01-08T00:02:26.669Z,23.30
2019-01-08T00:05:48.188Z,26.20
2019-01-08T00:09:11.203Z,17.10
2019-01-08T00:12:30.007Z,23.30
2019-01-08T00:15:38.028Z,19.53
2019-01-08T00:18:45.828Z,21.60
2019-01-08T00:21:50.998Z,18.60
2019-01-08T00:25:17.691Z,16.80
2019-01-08T00:28:32.991Z,23.20
2019-01-08T00:31:39.258Z,19.67
2019-01-08T00:34:50.953Z,20.17
2019-01-08T00:38:23.021Z,18.40
2019-01-08T00:41:33.113Z,22.17
2019-01-08T00:44:44.048Z,25.27
2019-01-08T00:48:09.950Z,19.97
2019-01-08T00:51:32.960Z,25.17
2019-01-08T00:54:47.066Z,18.93
2019-01-08T00:58:38.577Z,25.73
2019-01-08T01:02:00.339Z,19.50
2019-01-08T01:05:35.984Z,29.00
2019-01-08T01:08:50.259Z,17.93
2019-01-08T01:12:01.621Z,31.47
2019-01-08T01:15:15.849Z,19.40
2019-01-08T01:18:20.532Z,19.73
2019-01-08T01:21:28.828Z,25.80
2019-01-08T01:24:43.199Z,15.80
2019-01-08T01:27:56.844Z,20.47
2019-01-08T01:31:08.092Z,15.80
2019-01-08T01:34:18.894Z,19.20
2019-01-08T01:45:36.691Z,26.57
2019-01-08T01:48:44.888Z,29.53
2019-01-08T01:51:53.010Z,22.50
2019-01-08T01:55:02.039Z,28.43
2019-01-08T01:58:12.785Z,30.13
2019-01-08T02:01:20.384Z,20.47
2019-01-08T02:04:31.848Z,29.17
2019-01-08T02:07:46.970Z,29.20
2019-01-08T02:14:36.690Z,24.27
2019-01-08T02:22:07.442Z,17.23
2019-01-08T02:25:15.348Z,25.63
2019-01-08T02:28:20.273Z,34.20
2019-01-08T02:31:31.162Z,30.67
2019-01-08T02:46:17.573Z,35.87
2019-01-08T02:49:24.207Z,32.63
2019-01-08T02:52:28.388Z,40.63
2019-01-08T02:55:50.217Z,33.13
2019-01-08T02:58:58.039Z,41.80
2019-01-08T03:02:05.930Z,38.57
2019-01-08T03:05:10.650Z,40.13
2019-01-08T03:08:14.873Z,42.83
2019-01-08T03:11:41.175Z,21.60
2019-01-08T03:14:50.280Z,38.43
2019-01-08T03:17:57.572Z,37.67
2019-01-08T03:21:04.333Z,35.80
2019-01-08T03:24:12.055Z,22.87
2019-01-08T03:27:18.820Z,26.70
2019-01-08T03:30:45.424Z,38.03
2019-01-08T03:33:58.878Z,31.70
2019-01-08T03:40:33.845Z,30.53
2019-01-08T03:47:52.317Z,16.13
2019-01-08T03:50:57.076Z,38.70
2019-01-08T03:54:05.087Z,28.20
2019-01-08T03:57:17.363Z,24.20
2019-01-08T04:00:28.949Z,28.00
2019-01-08T04:03:38.705Z,22.10
2019-01-08T04:06:44.589Z,29.10
2019-01-08T04:09:52.193Z,36.57
2019-01-08T04:13:07.632Z,25.03
2019-01-08T04:16:53.737Z,36.97
2019-01-08T04:20:18.781Z,27.57
2019-01-08T04:23:41.395Z,17.37
2019-01-08T04:26:48.984Z,25.33
2019-01-08T04:29:56.361Z,38.03
2019-01-08T04:33:07.176Z,18.70
2019-01-08T04:36:24.109Z,18.20
2019-01-08T04:39:34.335Z,28.10
2019-01-08T04:42:38.483Z,24.20
2019-01-08T04:45:43.622Z,21.67
2019-01-08T04:48:47.937Z,19.50
2019-01-08T04:51:57.758Z,20.40
2019-01-08T04:55:03.520Z,29.03
2019-01-08T04:58:11.147Z,27.67
2019-01-08T05:01:16.804Z,21.97
2019-01-08T05:04:23.238Z,32.07
2019-01-08T05:07:30.635Z,26.43
2019-01-08T05:10:36.346Z,39.47
2019-01-08T05:13:47.260Z,23.50
2019-01-08T05:16:55.006Z,31.43
2019-01-08T05:19:59.996Z,31.57
2019-01-08T05:23:04.710Z,37.40
2019-01-08T05:26:15.615Z,24.03
2019-01-08T05:32:50.905Z,43.87
2019-01-08T05:36:01.271Z,29.57
2019-01-08T05:39:12.419Z,27.50
2019-01-08T05:42:26.708Z,27.03
2019-01-08T05:45:49.456Z,17.90
2019-01-08T05:48:55.826Z,17.97
2019-01-08T05:52:06.594Z,25.37
2019-01-08T05:55:18.250Z,26.07
2019-01-08T05:58:25.277Z,19.43
2019-01-08T06:01:48.646Z,30.27
2019-01-08T06:04:57.655Z,26.83
2019-01-08T06:08:13.570Z,23.83
2019-01-08T06:11:24.813Z,11.90
2019-01-08T06:14:34.087Z,17.70
2019-01-08T06:17:41.237Z,16.13
2019-01-08T06:20:55.040Z,22.00
2019-01-08T06:23:59.312Z,14.77
2019-01-08T06:27:03.626Z,15.37
2019-01-08T06:30:26.889Z,26.10
2019-01-08T06:33:32.634Z,18.13
2019-01-08T06:36:58.268Z,15.73
2019-01-08T06:40:06.785Z,15.53
2019-01-08T06:43:14.522Z,20.20
2019-01-08T06:46:21.925Z,22.57
2019-01-08T06:49:41.357Z,17.20
2019-01-08T06:52:48.367Z,7.50
2019-01-08T06:56:16.214Z,14.50
2019-01-08T06:59:20.533Z,17.37
2019-01-08T07:02:24.913Z,17.17
2019-01-08T07:05:37.254Z,8.57
2019-01-08T07:08:46.953Z,9.60
2019-01-08T07:12:39.393Z,15.70
2019-01-08T07:15:46.751Z,8.47
2019-01-08T07:19:00.904Z,6.40
2019-01-08T07:22:23.880Z,7.43
2019-01-08T07:25:28.697Z,8.03
2019-01-08T07:28:43.807Z,9.13
2019-01-08T07:31:58.620Z,7.63
2019-01-08T07:35:27.114Z,10.17
2019-01-08T07:38:41.206Z,4.43
2019-01-08T07:41:54.542Z,4.07
2019-01-08T07:45:02.144Z,5.00
2019-01-08T07:48:10.145Z,5.43
2019-01-08T07:51:21.228Z,4.53
2019-01-08T07:54:36.063Z,4.40
2019-01-08T07:57:55.881Z,5.33
2019-01-08T08:01:09.048Z,4.03
2019-01-08T08:04:16.507Z,8.00
2019-01-08T08:10:48.565Z,4.90
2019-01-08T08:14:14.254Z,8.43
2019-01-08T08:17:21.595Z,5.30
2019-01-08T08:20:44.054Z,10.20
2019-01-08T08:23:49.240Z,6.30
2019-01-08T08:27:05.046Z,6.27
2019-01-08T08:30:14.923Z,10.20
2019-01-08T08:33:28.138Z,5.57
2019-01-08T08:36:37.020Z,5.83
2019-01-08T08:39:47.766Z,5.20
2019-01-08T08:42:53.706Z,4.70
2019-01-08T08:45:58.114Z,5.00
2019-01-08T08:49:05.508Z,2.67
2019-01-08T08:52:10.238Z,1.87
2019-01-08T08:55:18.346Z,3.53
2019-01-08T08:58:22.675Z,2.83
2019-01-08T09:01:27.079Z,5.67
2019-01-08T09:04:36.110Z,4.83
2019-01-08T09:07:46.791Z,3.47
2019-01-08T09:10:54.376Z,2.43
2019-01-08T09:14:02.975Z,1.47
2019-01-08T09:17:09.421Z,3.03
2019-01-08T09:20:20.389Z,2.87
2019-01-08T09:23:24.900Z,1.67
2019-01-08T09:26:29.375Z,2.97
2019-01-08T09:29:33.507Z,2.73
2019-01-08T09:32:37.485Z,7.30
2019-01-08T09:35:43.551Z,3.43
2019-01-08T09:38:53.773Z,2.47
2019-01-08T09:41:59.953Z,4.07
2019-01-08T09:45:05.957Z,3.40
2019-01-08T09:48:10.221Z,3.60
2019-01-08T09:51:14.605Z,3.17
2019-01-08T09:54:18.786Z,5.87
2019-01-08T09:57:23.079Z,4.63
2019-01-08T10:00:27.322Z,5.13
2019-01-08T10:03:31.663Z,5.30
2019-01-08T10:06:39.467Z,7.53
2019-01-08T10:09:43.717Z,4.13
2019-01-08T10:12:48.078Z,4.67
2019-01-08T10:15:52.076Z,8.63
2019-01-08T10:18:56.553Z,6.00
2019-01-08T10:22:07.807Z,2.43
2019-01-08T10:25:12.067Z,3.40
2019-01-08T10:28:16.071Z,4.23
2019-01-08T10:31:21.242Z,7.83
2019-01-08T10:34:25.480Z,4.63
2019-01-08T10:37:30.120Z,3.33
2019-01-08T10:40:41.194Z,8.83
2019-01-08T10:43:48.470Z,3.07
2019-01-08T10:46:56.310Z,3.63
2019-01-08T10:50:00.671Z,4.60
2019-01-08T10:53:08.693Z,4.30
2019-01-08T10:56:22.676Z,4.93
2019-01-08T10:59:26.964Z,3.53
2019-01-08T11:02:34.972Z,4.67
2019-01-08T11:05:39.464Z,5.13
2019-01-08T11:08:43.738Z,5.97
2019-01-08T11:11:48.137Z,5.77
2019-01-08T11:14:52.633Z,4.30
2019-01-08T11:18:06.711Z,2.67
2019-01-08T11:21:15.445Z,4.57
2019-01-08T11:24:23.306Z,5.57
2019-01-08T11:27:31.973Z,4.53
2019-01-08T11:30:39.694Z,4.60
2019-01-08T11:33:43.747Z,3.83
2019-01-08T11:36:48.193Z,4.73
2019-01-08T11:39:52.307Z,5.93
2019-01-08T11:42:56.727Z,1.73
2019-01-08T11:46:04.559Z,3.77
2019-01-08T11:49:12.110Z,5.43
2019-01-08T11:52:16.912Z,3.07
2019-01-08T11:55:23.021Z,2.63
2019-01-08T11:58:43.271Z,2.27
2019-01-08T12:01:57.513Z,4.40
2019-01-08T12:05:05.208Z,3.80
2019-01-08T12:08:29.839Z,4.87
2019-01-08T12:12:41.523Z,3.47
2019-01-08T12:15:50.592Z,2.07
2019-01-08T12:18:58.122Z,3.20
2019-01-08T12:22:02.680Z,4.87
2019-01-08T12:25:09.807Z,1.27
2019-01-08T12:28:15.575Z,5.00
2019-01-08T12:31:19.538Z,2.90
2019-01-08T12:34:29.817Z,1.53
2019-01-08T12:37:33.977Z,1.70
2019-01-08T12:40:37.900Z,4.47
2019-01-08T12:43:42.177Z,3.57
2019-01-08T12:46:46.294Z,5.13
2019-01-08T12:49:57.094Z,3.07
2019-01-08T12:53:08.316Z,2.23
2019-01-08T12:56:24.925Z,1.83
2019-01-08T12:59:35.560Z,3.60
2019-01-08T13:02:39.815Z,0.97
2019-01-08T13:05:43.863Z,3.30
2019-01-08T13:08:50.198Z,2.63
2019-01-08T13:11:54.619Z,1.57
2019-01-08T13:15:01.660Z,3.90
2019-01-08T13:18:06.388Z,2.70
2019-01-08T13:21:17.227Z,1.20
2019-01-08T13:24:28.799Z,2.90
2019-01-08T13:27:33.340Z,2.50
2019-01-08T13:30:37.991Z,2.80
2019-01-08T13:33:45.977Z,2.33
2019-01-08T13:36:53.358Z,1.33
2019-01-08T13:39:57.211Z,2.20
2019-01-08T13:43:01.728Z,1.43
2019-01-08T13:46:09.014Z,4.93
2019-01-08T13:49:14.742Z,1.17
2019-01-08T13:52:20.359Z,3.87
2019-01-08T13:55:24.673Z,3.47
2019-01-08T13:58:34.726Z,1.43
2019-01-08T14:01:40.978Z,4.37
2019-01-08T14:04:48.088Z,2.43
2019-01-08T14:07:52.666Z,2.70
2019-01-08T14:11:00.130Z,1.73
2019-01-08T14:14:05.035Z,2.47
2019-01-08T14:17:10.962Z,3.73
2019-01-08T14:20:18.822Z,2.50
2019-01-08T14:23:36.128Z,2.50
2019-01-08T14:26:44.242Z,1.80
2019-01-08T14:29:48.346Z,5.73
2019-01-08T14:32:53.632Z,4.50
2019-01-08T14:36:00.820Z,2.10
2019-01-08T14:39:06.694Z,2.67
2019-01-08T14:42:29.652Z,2.70
2019-01-08T14:45:31.036Z,2.63
2019-01-08T14:48:35.849Z,1.47
2019-01-08T14:51:42.780Z,2.07
2019-01-08T14:54:47.164Z,2.43
2019-01-08T14:57:57.589Z,2.97
2019-01-08T15:01:01.866Z,2.37
2019-01-08T15:04:06.148Z,4.53
2019-01-08T15:07:17.033Z,2.23
2019-01-08T15:10:24.909Z,1.97
2019-01-08T15:13:32.015Z,2.10
2019-01-08T15:16:41.141Z,3.13
2019-01-08T15:19:48.437Z,2.10
2019-01-08T15:22:52.867Z,3.73
2019-01-08T15:25:56.810Z,5.47
2019-01-08T15:29:00.938Z,2.33
2019-01-08T15:32:05.503Z,4.47
2019-01-08T15:35:09.987Z,4.93
2019-01-08T15:38:14.246Z,4.27
2019-01-08T15:41:18.632Z,4.90
2019-01-08T15:44:23.217Z,3.93
2019-01-08T15:47:27.581Z,5.17
2019-01-08T15:50:32.581Z,3.23
2019-01-08T15:53:40.157Z,4.40
2019-01-08T15:56:44.286Z,2.20
2019-01-08T15:59:53.674Z,3.50
2019-01-08T16:02:57.775Z,3.23
2019-01-08T16:06:01.948Z,3.17
2019-01-08T16:09:08.167Z,4.00
2019-01-08T16:12:12.155Z,3.90
2019-01-08T16:15:16.216Z,4.47
2019-01-08T16:18:20.423Z,4.07
2019-01-08T16:21:24.754Z,3.83
2019-01-08T16:24:28.992Z,4.37
2019-01-08T16:27:35.343Z,3.80
2019-01-08T16:30:39.536Z,2.70
2019-01-08T16:33:44.510Z,3.63
2019-01-08T16:36:50.470Z,5.63
2019-01-08T16:39:54.795Z,2.20
2019-01-08T16:42:58.684Z,0.90
2019-01-08T16:46:19.855Z,1.67
2019-01-08T16:49:26.265Z,2.53
2019-01-08T16:52:30.524Z,3.57
2019-01-08T16:55:34.934Z,2.37
2019-01-08T16:58:43.940Z,3.50
2019-01-08T17:01:48.160Z,2.30
2019-01-08T17:04:52.454Z,1.40
2019-01-08T17:08:00.078Z,3.43
2019-01-08T17:11:04.327Z,1.70
2019-01-08T17:14:08.515Z,2.20
2019-01-08T17:17:13.459Z,4.07
2019-01-08T17:20:17.581Z,3.40
2019-01-08T17:23:21.876Z,2.73
2019-01-08T17:26:26.509Z,3.20
2019-01-08T17:29:30.872Z,3.17
2019-01-08T17:32:35.451Z,4.53
2019-01-08T17:35:39.715Z,4.43
2019-01-08T17:38:43.800Z,2.10
2019-01-08T17:41:48.031Z,3.20
2019-01-08T17:44:53.445Z,2.20
2019-01-08T17:48:03.924Z,3.43
2019-01-08T17:51:11.053Z,3.43
2019-01-08T17:54:15.532Z,3.93
2019-01-08T17:57:19.466Z,2.17
2019-01-08T18:00:23.666Z,3.30
2019-01-08T18:03:27.871Z,3.67
2019-01-08T18:06:39.008Z,1.93
2019-01-08T18:09:43.927Z,1.73
2019-01-08T18:12:48.334Z,1.50
2019-01-08T18:15:56.116Z,1.37
2019-01-08T18:19:02.816Z,1.93
2019-01-08T18:22:07.223Z,4.57
2019-01-08T18:25:14.376Z,1.33
2019-01-08T18:28:22.154Z,2.50
2019-01-08T18:31:29.792Z,2.73
2019-01-08T18:34:35.094Z,3.07
2019-01-08T18:37:45.238Z,1.87
2019-01-08T18:40:52.590Z,1.63
2019-01-08T18:43:57.461Z,4.63
2019-01-08T18:47:02.074Z,3.10
2019-01-08T18:50:07.829Z,3.90
2019-01-08T18:53:12.235Z,4.97
2019-01-08T18:56:16.705Z,1.43
2019-01-08T18:59:24.103Z,4.73
2019-01-08T19:02:39.178Z,6.80
2019-01-08T19:05:46.436Z,3.90
2019-01-08T19:09:36.923Z,2.40
2019-01-08T19:12:45.552Z,5.10
2019-01-08T19:15:50.117Z,4.47
2019-01-08T19:18:57.375Z,3.70
2019-01-08T19:22:02.136Z,5.13
2019-01-08T19:25:09.812Z,6.73
2019-01-08T19:28:14.260Z,5.40
2019-01-08T19:31:28.792Z,4.93
2019-01-08T19:34:34.598Z,7.70
2019-01-08T19:37:41.745Z,6.30
2019-01-08T19:40:46.463Z,5.80
2019-01-08T19:43:53.089Z,4.80
2019-01-08T19:47:05.026Z,3.80
2019-01-08T19:50:09.666Z,5.67
2019-01-08T19:53:14.291Z,5.40
2019-01-08T19:56:18.736Z,5.30
2019-01-08T19:59:22.962Z,4.17
2019-01-08T20:02:27.169Z,8.77
2019-01-08T20:05:31.645Z,4.20
2019-01-08T20:08:37.707Z,4.37
2019-01-08T20:11:45.810Z,7.27
2019-01-08T20:14:52.065Z,3.30
2019-01-08T20:17:58.039Z,6.83
2019-01-08T20:21:03.711Z,9.10
2019-01-08T20:24:14.146Z,3.77
2019-01-08T20:27:22.577Z,5.40
2019-01-08T20:30:29.732Z,6.10
2019-01-08T20:33:36.178Z,6.17
2019-01-08T20:37:00.265Z,8.80
2019-01-08T20:40:13.326Z,8.30
2019-01-08T20:43:19.104Z,9.33
2019-01-08T20:46:25.366Z,4.30
2019-01-08T20:49:30.299Z,12.97
2019-01-08T20:52:37.003Z,7.50
2019-01-08T20:55:41.601Z,6.03
2019-01-08T21:02:37.303Z,6.60
2019-01-08T21:05:41.509Z,4.77
2019-01-08T21:08:46.012Z,8.93
2019-01-08T21:11:50.109Z,8.37
2019-01-08T21:14:55.315Z,9.20
2019-01-08T21:17:59.410Z,5.33
2019-01-08T21:21:05.028Z,8.43
2019-01-08T21:24:09.572Z,7.97
2019-01-08T21:27:14.159Z,5.77
2019-01-08T21:30:21.519Z,7.60
2019-01-08T21:33:25.766Z,4.37
2019-01-08T21:36:30.976Z,6.67
2019-01-08T21:39:35.345Z,7.20
2019-01-08T21:42:39.703Z,6.60
2019-01-08T21:45:43.985Z,9.83
2019-01-08T21:48:48.555Z,6.33
2019-01-08T21:51:58.920Z,5.80
2019-01-08T21:55:03.030Z,3.03
2019-01-08T21:58:07.700Z,6.53
2019-01-08T22:01:11.868Z,10.37
2019-01-08T22:04:16.352Z,8.20
2019-01-08T22:07:22.587Z,5.57
2019-01-08T22:10:27.145Z,6.03
2019-01-08T22:13:35.916Z,5.03
2019-01-08T22:16:40.380Z,7.30
2019-01-08T22:19:44.951Z,5.77
2019-01-08T22:22:52.747Z,6.10
2019-01-08T22:25:55.208Z,6.20
2019-01-08T22:28:59.697Z,5.53
2019-01-08T22:32:04.006Z,5.53
2019-01-08T22:35:08.397Z,6.10
2019-01-08T22:38:12.640Z,8.13
2019-01-08T22:41:17.446Z,3.73
2019-01-08T22:44:22.110Z,5.30
2019-01-08T22:47:26.299Z,3.23
2019-01-08T22:50:30.748Z,3.53
2019-01-08T22:53:35.778Z,4.70
2019-01-08T22:56:41.563Z,7.33
2019-01-08T22:59:49.154Z,5.33
2019-01-08T23:02:53.493Z,6.00
2019-01-08T23:05:57.926Z,7.13
2019-01-08T23:09:02.011Z,5.80
2019-01-08T23:12:06.758Z,4.00
2019-01-08T23:15:10.948Z,4.87
2019-01-08T23:18:15.526Z,5.63
2019-01-08T23:21:19.945Z,7.33
2019-01-08T23:24:27.505Z,7.70
2019-01-08T23:27:31.724Z,4.03
2019-01-08T23:30:35.783Z,4.90
2019-01-08T23:33:41.332Z,6.17
2019-01-08T23:36:45.415Z,5.20
2019-01-08T23:39:49.842Z,9.53
2019-01-08T23:42:53.915Z,4.97
2019-01-08T23:45:58.051Z,4.10
2019-01-08T23:49:07.792Z,3.17
2019-01-08T23:52:23.181Z,4.57
2019-01-08T23:55:30.561Z,4.87
2019-01-08T23:58:35.204Z,8.13
